createdAt,value
2022-10-28T00:00:07.363Z,99210.91
2022-10-28T00:02:14.787Z,99209.19
2022-10-28T00:04:19.629Z,99210.16
2022-10-28T00:06:26.430Z,99213.72
2022-10-28T00:08:31.138Z,99215.63
2022-10-28T00:10:35.968Z,99219.09
2022-10-28T00:12:41.300Z,99215.53
2022-10-28T00:14:46.811Z,99219.03
2022-10-28T00:16:51.919Z,99220.66
2022-10-28T00:19:01.809Z,99221.41
2022-10-28T00:21:08.705Z,99219.50
2022-10-28T00:23:13.440Z,99218.38
2022-10-28T00:25:24.621Z,99212.91
2022-10-28T00:27:29.958Z,99210.91
2022-10-28T00:29:34.974Z,99205.38
2022-10-28T00:31:41.160Z,99212.19
2022-10-28T00:33:46.259Z,99210.25
2022-10-28T00:35:53.319Z,99213.81
2022-10-28T00:37:58.058Z,99205.00
2022-10-28T00:40:02.908Z,99210.16
2022-10-28T00:42:08.042Z,99212.63
2022-10-28T00:44:27.589Z,99215.44
2022-10-28T00:46:39.132Z,99209.28
2022-10-28T00:48:46.208Z,99213.53
2022-10-28T00:50:55.113Z,99206.59
2022-10-28T00:53:06.597Z,99204.97
2022-10-28T00:55:12.273Z,99213.94
2022-10-28T00:57:21.653Z,99213.03
2022-10-28T00:59:30.923Z,99212.25
2022-10-28T01:01:36.249Z,99210.53
2022-10-28T01:03:41.179Z,99208.00
2022-10-28T01:05:49.253Z,99200.19
2022-10-28T01:08:00.477Z,99203.75
2022-10-28T01:10:05.313Z,99202.03
2022-10-28T01:12:17.693Z,99208.28
2022-10-28T01:14:40.506Z,99208.31
2022-10-28T01:16:52.334Z,99212.81
2022-10-28T01:19:11.087Z,99211.94
2022-10-28T01:21:44.941Z,99201.53
2022-10-28T01:24:10.293Z,99202.44
2022-10-28T01:26:51.215Z,99197.28
2022-10-28T01:29:17.000Z,99193.09
2022-10-28T01:31:36.086Z,99198.34
2022-10-28T01:33:47.801Z,99199.22
2022-10-28T01:35:56.757Z,99205.31
2022-10-28T01:38:19.112Z,99201.81
2022-10-28T01:40:30.575Z,99191.38
2022-10-28T01:42:42.069Z,99188.03
2022-10-28T01:44:54.962Z,99188.09
2022-10-28T01:47:11.448Z,99191.78
2022-10-28T01:49:22.183Z,99191.91
2022-10-28T01:51:32.788Z,99186.81
2022-10-28T01:53:42.305Z,99193.84
2022-10-28T01:55:51.659Z,99190.38
2022-10-28T01:58:01.544Z,99187.75
2022-10-28T02:00:07.973Z,99191.19
2022-10-28T02:02:21.548Z,99179.03
2022-10-28T02:04:26.368Z,99183.50
2022-10-28T02:06:34.844Z,99180.97
2022-10-28T02:08:53.972Z,99181.72
2022-10-28T02:11:16.395Z,99177.28
2022-10-28T02:13:23.920Z,99173.84
2022-10-28T02:15:41.318Z,99174.66
2022-10-28T02:17:58.488Z,99172.03
2022-10-28T02:20:12.555Z,99170.34
2022-10-28T02:22:24.396Z,99169.56
2022-10-28T02:24:37.142Z,99167.72
2022-10-28T02:26:48.633Z,99168.56
2022-10-28T02:28:59.319Z,99170.25
2022-10-28T02:31:10.400Z,99163.25
2022-10-28T02:33:22.996Z,99172.00
2022-10-28T02:35:34.292Z,99169.41
2022-10-28T02:37:42.629Z,99173.84
2022-10-28T02:39:51.946Z,99176.69
2022-10-28T02:42:01.317Z,99175.06
2022-10-28T02:44:12.921Z,99169.72
2022-10-28T02:46:19.512Z,99165.38
2022-10-28T02:48:31.648Z,99167.91
2022-10-28T02:50:39.268Z,99165.28
2022-10-28T02:52:47.851Z,99168.75
2022-10-28T02:54:57.273Z,99161.81
2022-10-28T02:57:06.223Z,99161.97
2022-10-28T02:59:13.869Z,99164.63
2022-10-28T03:01:18.915Z,99165.59
2022-10-28T03:03:26.065Z,99157.25
2022-10-28T03:05:30.863Z,99159.94
2022-10-28T03:07:35.621Z,99167.78
2022-10-28T03:09:40.462Z,99167.88
2022-10-28T03:11:45.217Z,99163.59
2022-10-28T03:13:49.978Z,99165.56
2022-10-28T03:15:54.693Z,99170.09
2022-10-28T03:17:59.458Z,99166.66
2022-10-28T03:20:07.658Z,99171.91
2022-10-28T03:22:12.393Z,99159.78
2022-10-28T03:24:17.128Z,99161.72
2022-10-28T03:26:21.918Z,99170.56
2022-10-28T03:28:26.752Z,99172.41
2022-10-28T03:30:31.573Z,99174.19
2022-10-28T03:32:36.426Z,99175.94
2022-10-28T03:34:41.223Z,99176.84
2022-10-28T03:36:48.527Z,99172.53
2022-10-28T03:38:53.370Z,99172.53
2022-10-28T03:40:58.167Z,99162.84
2022-10-28T03:43:03.041Z,99158.41
2022-10-28T03:45:09.123Z,99157.56
2022-10-28T03:47:13.908Z,99166.34
2022-10-28T03:49:18.892Z,99161.28
2022-10-28T03:51:23.675Z,99168.28
2022-10-28T03:53:31.499Z,99161.28
2022-10-28T03:55:36.513Z,99163.84
2022-10-28T03:57:41.394Z,99170.66
2022-10-28T03:59:46.240Z,99165.28
2022-10-28T04:01:51.138Z,99155.66
2022-10-28T04:03:55.975Z,99159.13
2022-10-28T04:06:00.786Z,99164.44
2022-10-28T04:08:05.569Z,99165.31
2022-10-28T04:10:13.597Z,99171.50
2022-10-28T04:12:18.519Z,99172.28
2022-10-28T04:14:23.275Z,99163.50
2022-10-28T04:16:28.082Z,99165.28
2022-10-28T04:18:32.839Z,99167.06
2022-10-28T04:20:38.003Z,99172.28
2022-10-28T04:22:42.584Z,99169.81
2022-10-28T04:24:47.348Z,99163.63
2022-10-28T04:26:54.684Z,99167.84
2022-10-28T04:28:59.565Z,99161.56
2022-10-28T04:31:04.903Z,99164.03
2022-10-28T04:33:09.821Z,99166.53
2022-10-28T04:35:15.608Z,99160.50
2022-10-28T04:37:20.749Z,99163.19
2022-10-28T04:39:25.293Z,99156.38
2022-10-28T04:41:30.463Z,99161.72
2022-10-28T04:43:37.778Z,99162.53
2022-10-28T04:45:42.549Z,99165.16
2022-10-28T04:47:47.827Z,99157.38
2022-10-28T04:49:52.865Z,99174.69
2022-10-28T04:52:00.841Z,99173.81
2022-10-28T04:54:05.791Z,99172.09
2022-10-28T04:56:11.411Z,99169.47
2022-10-28T04:58:16.126Z,99168.56
2022-10-28T05:00:24.346Z,99170.22
2022-10-28T05:02:29.358Z,99171.91
2022-10-28T05:04:34.427Z,99176.09
2022-10-28T05:06:39.353Z,99184.94
2022-10-28T05:08:44.229Z,99192.13
2022-10-28T05:10:51.213Z,99198.25
2022-10-28T05:12:56.154Z,99197.53
2022-10-28T05:15:00.909Z,99189.91
2022-10-28T05:17:08.254Z,99188.03
2022-10-28T05:19:13.011Z,99187.91
2022-10-28T05:21:17.809Z,99187.78
2022-10-28T05:23:24.754Z,99176.34
2022-10-28T05:25:31.976Z,99179.72
2022-10-28T05:27:36.820Z,99176.97
2022-10-28T05:29:41.555Z,99169.81
2022-10-28T05:31:46.372Z,99169.72
2022-10-28T05:33:53.673Z,99159.06
2022-10-28T05:35:58.606Z,99153.72
2022-10-28T05:38:03.797Z,99156.50
2022-10-28T05:40:08.848Z,99154.16
2022-10-28T05:42:13.605Z,99156.84
2022-10-28T05:44:18.512Z,99159.41
2022-10-28T05:46:23.256Z,99161.38
2022-10-28T05:48:28.226Z,99163.00
2022-10-28T05:50:35.666Z,99165.56
2022-10-28T05:52:40.401Z,99175.19
2022-10-28T05:54:45.164Z,99169.81
2022-10-28T05:56:49.932Z,99174.91
2022-10-28T05:58:54.688Z,99169.47
2022-10-28T06:00:59.489Z,99184.03
2022-10-28T06:03:10.198Z,99181.28
2022-10-28T06:05:15.481Z,99187.94
2022-10-28T06:07:24.614Z,99183.63
2022-10-28T06:09:31.009Z,99185.66
2022-10-28T06:11:35.567Z,99179.59
2022-10-28T06:13:40.476Z,99180.44
2022-10-28T06:15:45.369Z,99178.69
2022-10-28T06:17:50.359Z,99176.88
2022-10-28T06:19:55.279Z,99186.38
2022-10-28T06:22:00.056Z,99187.88
2022-10-28T06:24:12.094Z,99188.59
2022-10-28T06:26:17.123Z,99192.75
2022-10-28T06:28:21.974Z,99191.72
2022-10-28T06:30:28.276Z,99183.78
2022-10-28T06:32:32.996Z,99195.31
2022-10-28T06:34:38.246Z,99189.94
2022-10-28T06:36:42.770Z,99193.47
2022-10-28T06:38:47.579Z,99185.59
2022-10-28T06:40:54.985Z,99189.81
2022-10-28T06:43:00.787Z,99195.72
2022-10-28T06:45:06.598Z,99196.63
2022-10-28T06:47:13.111Z,99194.78
2022-10-28T06:49:17.936Z,99201.59
2022-10-28T06:51:22.706Z,99208.41
2022-10-28T06:53:27.785Z,99213.53
2022-10-28T06:55:32.607Z,99216.13
2022-10-28T06:57:39.907Z,99223.91
2022-10-28T06:59:44.923Z,99220.44
2022-10-28T07:01:49.722Z,99224.72
2022-10-28T07:03:54.557Z,99238.63
2022-10-28T07:05:59.462Z,99246.66
2022-10-28T07:08:04.249Z,99241.56
2022-10-28T07:10:09.608Z,99231.72
2022-10-28T07:12:14.496Z,99232.25
2022-10-28T07:14:21.823Z,99235.31
2022-10-28T07:16:26.856Z,99235.97
2022-10-28T07:18:32.644Z,99210.34
2022-10-28T07:20:37.418Z,99169.41
2022-10-28T07:22:42.208Z,99144.84
2022-10-28T07:24:47.104Z,99125.00
2022-10-28T07:26:54.287Z,99111.47
2022-10-28T07:29:01.957Z,99116.59
2022-10-28T07:33:13.968Z,99205.06
2022-10-28T07:35:18.950Z,99243.94
2022-10-28T07:37:23.984Z,99238.53
2022-10-28T07:39:28.879Z,99219.50
2022-10-28T07:41:33.698Z,99231.91
2022-10-28T07:43:40.021Z,99213.66
2022-10-28T07:45:44.756Z,99195.59
2022-10-28T07:47:52.099Z,99192.31
2022-10-28T07:49:57.108Z,99189.38
2022-10-28T07:52:01.805Z,99194.06
2022-10-28T07:54:06.907Z,99201.06
2022-10-28T07:56:13.854Z,99203.75
2022-10-28T07:58:18.610Z,99197.97
2022-10-28T08:00:23.473Z,99178.19
2022-10-28T08:02:28.928Z,99181.94
2022-10-28T08:04:36.259Z,99182.91
2022-10-28T08:06:41.053Z,99174.75
2022-10-28T08:08:46.971Z,99173.44
2022-10-28T08:10:51.678Z,99176.19
2022-10-28T08:12:59.598Z,99169.75
2022-10-28T08:15:04.481Z,99157.25
2022-10-28T08:17:09.552Z,99162.19
2022-10-28T08:19:14.433Z,99163.81
2022-10-28T08:21:21.880Z,99163.56
2022-10-28T08:23:26.751Z,99159.25
2022-10-28T08:25:31.498Z,99153.84
2022-10-28T08:27:36.407Z,99160.72
2022-10-28T08:29:41.173Z,99164.97
2022-10-28T08:31:45.917Z,99157.00
2022-10-28T08:33:50.777Z,99156.53
2022-10-28T08:35:55.577Z,99148.56
2022-10-28T08:38:02.970Z,99148.72
2022-10-28T08:40:09.931Z,99152.47
2022-10-28T08:42:39.591Z,99143.78
2022-10-28T08:45:06.743Z,99142.94
2022-10-28T08:47:21.782Z,99146.63
2022-10-28T08:49:27.512Z,99141.53
2022-10-28T08:51:39.791Z,99149.41
2022-10-28T08:53:51.427Z,99141.31
2022-10-28T08:55:59.072Z,99138.44
2022-10-28T08:58:10.883Z,99140.75
2022-10-28T09:00:23.799Z,99128.19
2022-10-28T09:02:33.968Z,99121.75
2022-10-28T09:04:41.845Z,99116.25
2022-10-28T09:06:46.669Z,99113.56
2022-10-28T09:08:54.047Z,99118.41
2022-10-28T09:11:28.450Z,99118.69
2022-10-28T09:13:41.912Z,99125.00
2022-10-28T09:15:57.898Z,99117.19
2022-10-28T09:18:14.444Z,99112.88
2022-10-28T09:20:22.210Z,99108.88
2022-10-28T09:22:29.474Z,99109.66
2022-10-28T09:24:48.833Z,99105.66
2022-10-28T09:27:01.781Z,99105.25
2022-10-28T09:29:20.270Z,99101.34
2022-10-28T09:31:35.803Z,99089.53
2022-10-28T09:33:51.812Z,99085.78
2022-10-28T09:35:59.169Z,99082.72
2022-10-28T09:38:16.025Z,99070.91
2022-10-28T09:40:27.193Z,99071.19
2022-10-28T09:44:49.743Z,99070.06
2022-10-28T09:46:58.136Z,99060.78
2022-10-28T09:49:07.640Z,99066.88
2022-10-28T09:51:25.338Z,99057.50
2022-10-28T09:53:39.115Z,99058.09
2022-10-28T09:55:46.705Z,99054.78
2022-10-28T09:57:51.870Z,99057.09
2022-10-28T09:59:57.065Z,99054.53
2022-10-28T10:02:02.045Z,99054.06
2022-10-28T10:04:18.818Z,99054.16
2022-10-28T10:06:29.931Z,99056.41
2022-10-28T10:08:36.425Z,99059.78
2022-10-28T10:10:50.591Z,99047.94
2022-10-28T10:12:59.593Z,99051.97
2022-10-28T10:15:08.440Z,99055.94
2022-10-28T10:17:18.178Z,99056.59
2022-10-28T10:19:23.157Z,99057.78
2022-10-28T10:21:45.039Z,99054.84
2022-10-28T10:23:49.867Z,99052.88
2022-10-28T10:26:06.722Z,99050.47
2022-10-28T10:28:18.991Z,99048.94
2022-10-28T10:30:26.913Z,99051.91
2022-10-28T10:32:34.492Z,99049.53
2022-10-28T10:34:39.432Z,99050.41
2022-10-28T10:36:52.506Z,99050.47
2022-10-28T10:38:59.317Z,99051.44
2022-10-28T10:41:07.093Z,99046.16
2022-10-28T10:43:24.954Z,99045.97
2022-10-28T10:45:30.966Z,99041.72
2022-10-28T10:47:35.712Z,99032.31
2022-10-28T10:49:40.587Z,99014.34
2022-10-28T10:51:54.750Z,99014.13
2022-10-28T10:54:01.892Z,99014.97
2022-10-28T10:56:13.243Z,99010.72
2022-10-28T10:58:21.436Z,99001.28
2022-10-28T11:00:31.133Z,98991.69
2022-10-28T11:02:40.071Z,98980.75
2022-10-28T11:04:53.895Z,98991.34
2022-10-28T11:07:00.596Z,98971.34
2022-10-28T11:09:08.279Z,98974.66
2022-10-28T11:11:21.466Z,98970.28
2022-10-28T11:13:29.908Z,98968.63
2022-10-28T11:15:35.762Z,98960.34
2022-10-28T11:17:40.576Z,98953.53
2022-10-28T11:19:45.716Z,98948.84
2022-10-28T11:22:00.026Z,98950.19
2022-10-28T11:24:24.404Z,98952.59
2022-10-28T11:26:35.304Z,98947.28
2022-10-28T11:29:10.445Z,98939.75
2022-10-28T11:31:34.905Z,98936.66
2022-10-28T11:33:47.111Z,98927.75
2022-10-28T11:36:05.440Z,98926.44
2022-10-28T11:38:22.710Z,98919.81
2022-10-28T11:40:37.239Z,98925.00
2022-10-28T11:42:52.534Z,98921.41
2022-10-28T11:45:07.258Z,98916.25
2022-10-28T11:47:28.144Z,98920.94
2022-10-28T11:49:49.824Z,98923.22
2022-10-28T11:52:03.466Z,98922.03
2022-10-28T11:54:38.144Z,98915.75
2022-10-28T11:56:50.444Z,98915.03
2022-10-28T11:59:11.706Z,98926.22
2022-10-28T12:01:40.046Z,98921.66
2022-10-28T12:04:09.420Z,98912.75
2022-10-28T12:06:21.255Z,98908.66
2022-10-28T12:08:39.836Z,98913.72
2022-10-28T12:10:56.866Z,98913.22
2022-10-28T12:13:11.206Z,98912.03
2022-10-28T12:15:25.227Z,98905.75
2022-10-28T12:17:38.489Z,98899.59
2022-10-28T12:19:49.519Z,98901.28
2022-10-28T12:22:02.765Z,98900.56
2022-10-28T12:24:15.016Z,98907.06
2022-10-28T12:26:22.763Z,98911.53
2022-10-28T12:28:33.139Z,98910.31
2022-10-28T12:30:44.671Z,98909.16
2022-10-28T12:32:54.017Z,98903.94
2022-10-28T12:35:04.225Z,98904.69
2022-10-28T12:37:13.105Z,98900.44
2022-10-28T12:39:24.135Z,98902.88
2022-10-28T12:41:30.545Z,98892.50
2022-10-28T12:43:41.072Z,98892.50
2022-10-28T12:45:51.220Z,98890.81
2022-10-28T12:48:02.869Z,98881.03
2022-10-28T12:50:16.517Z,98866.50
2022-10-28T12:52:30.650Z,98863.69
2022-10-28T12:54:43.540Z,98859.38
2022-10-28T12:56:53.248Z,98869.25
2022-10-28T13:01:16.502Z,98868.16
2022-10-28T13:03:21.351Z,98866.00
2022-10-28T13:05:29.125Z,98863.94
2022-10-28T13:07:57.696Z,98866.22
2022-10-28T13:10:14.274Z,98858.97
2022-10-28T13:12:39.765Z,98859.47
2022-10-28T13:15:10.655Z,98869.56
2022-10-28T13:17:30.447Z,98863.91
2022-10-28T13:19:52.275Z,98866.56
2022-10-28T13:22:32.261Z,98867.03
2022-10-28T13:24:46.270Z,98870.13
2022-10-28T13:26:51.911Z,98862.31
2022-10-28T13:28:59.720Z,98862.41
2022-10-28T13:31:07.030Z,98867.88
2022-10-28T13:33:28.036Z,98866.19
2022-10-28T13:35:33.809Z,98878.84
2022-10-28T13:37:39.676Z,98880.19
2022-10-28T13:39:47.081Z,98879.34
2022-10-28T13:41:51.867Z,98878.63
2022-10-28T13:44:25.590Z,98871.88
2022-10-28T13:47:00.406Z,98875.75
2022-10-28T13:49:27.668Z,98873.22
2022-10-28T13:51:37.311Z,98878.53
2022-10-28T13:53:47.528Z,98895.28
2022-10-28T13:55:52.425Z,98887.56
2022-10-28T13:58:03.557Z,98884.31
2022-10-28T14:00:30.201Z,98887.19
2022-10-28T14:02:42.411Z,98886.22
2022-10-28T14:04:57.866Z,98891.66
2022-10-28T14:07:05.284Z,98882.97
2022-10-28T14:09:23.455Z,98877.81
2022-10-28T14:11:32.577Z,98885.28
2022-10-28T14:13:40.044Z,98885.38
2022-10-28T14:15:46.110Z,98883.13
2022-10-28T14:18:04.952Z,98883.13
2022-10-28T14:20:29.763Z,98879.84
2022-10-28T14:22:37.498Z,98875.16
2022-10-28T14:24:44.901Z,98878.16
2022-10-28T14:27:28.371Z,98877.56
2022-10-28T14:29:33.588Z,98873.59
2022-10-28T14:31:45.180Z,98874.16
2022-10-28T14:34:27.536Z,98876.81
2022-10-28T14:36:44.076Z,98870.09
2022-10-28T14:39:06.424Z,98875.38
2022-10-28T14:41:22.859Z,98866.69
2022-10-28T14:43:56.491Z,98874.88
2022-10-28T14:46:16.114Z,98877.78
2022-10-28T14:48:51.880Z,98878.00
2022-10-28T14:51:00.182Z,98869.72
2022-10-28T14:53:08.662Z,98872.59
2022-10-28T14:55:24.936Z,98865.00
2022-10-28T14:57:33.840Z,98866.41
2022-10-28T14:59:42.969Z,98870.13
2022-10-28T15:02:01.865Z,98867.81
2022-10-28T15:04:13.850Z,98865.63
2022-10-28T15:06:46.011Z,98870.44
2022-10-28T15:08:50.859Z,98878.13
2022-10-28T15:10:55.736Z,98876.66
2022-10-28T15:13:01.680Z,98884.00
2022-10-28T15:15:18.369Z,98886.25
2022-10-28T15:17:25.265Z,98878.78
2022-10-28T15:19:31.865Z,98879.00
2022-10-28T15:21:36.649Z,98876.69
2022-10-28T15:23:47.245Z,98884.13
2022-10-28T15:26:10.562Z,98871.34
2022-10-28T15:28:16.180Z,98877.81
2022-10-28T15:30:23.827Z,98872.75
2022-10-28T15:32:33.838Z,98880.25
2022-10-28T15:34:38.632Z,98898.91
2022-10-28T15:36:43.455Z,98892.88
2022-10-28T15:38:52.146Z,98884.09
2022-10-28T15:40:57.311Z,98881.44
2022-10-28T15:43:04.032Z,98889.38
2022-10-28T15:45:18.359Z,98890.13
2022-10-28T15:47:31.352Z,98883.88
2022-10-28T15:49:40.792Z,98874.97
2022-10-28T15:51:45.535Z,98880.38
2022-10-28T15:53:55.305Z,98878.78
2022-10-28T15:56:24.979Z,98879.63
2022-10-28T15:58:38.403Z,98891.28
2022-10-28T16:00:55.149Z,98889.69
2022-10-28T16:03:02.300Z,98886.97
2022-10-28T16:05:08.407Z,98889.69
2022-10-28T16:07:13.312Z,98890.66
2022-10-28T16:09:27.865Z,98883.56
2022-10-28T16:11:33.862Z,98887.63
2022-10-28T16:13:41.990Z,98886.78
2022-10-28T16:15:50.739Z,98897.47
2022-10-28T16:17:56.068Z,98897.59
2022-10-28T16:20:04.626Z,98897.59
2022-10-28T16:22:12.941Z,98896.72
2022-10-28T16:24:17.717Z,98906.69
2022-10-28T16:26:25.025Z,98892.84
2022-10-28T16:28:30.946Z,98896.75
2022-10-28T16:30:35.759Z,98893.38
2022-10-28T16:32:42.427Z,98898.78
2022-10-28T16:34:47.277Z,98904.38
2022-10-28T16:36:52.042Z,98898.47
2022-10-28T16:38:56.839Z,98903.75
2022-10-28T16:41:02.776Z,98905.56
2022-10-28T16:43:18.015Z,98904.59
2022-10-28T16:45:22.731Z,98906.63
2022-10-28T16:47:29.195Z,98912.00
2022-10-28T16:49:33.944Z,98906.72
2022-10-28T16:51:39.945Z,98909.50
2022-10-28T16:53:47.575Z,98907.78
2022-10-28T16:55:54.207Z,98906.00
2022-10-28T16:57:59.113Z,98912.22
2022-10-28T17:00:07.576Z,98902.41
2022-10-28T17:02:18.148Z,98915.00
2022-10-28T17:04:23.005Z,98912.66
2022-10-28T17:06:28.002Z,98913.72
2022-10-28T17:09:00.748Z,98909.59
2022-10-28T17:10:57.452Z,98898.28
2022-10-28T17:13:03.137Z,98902.81
2022-10-28T17:15:12.025Z,98903.03
2022-10-28T17:17:16.782Z,98901.56
2022-10-28T17:19:21.563Z,98903.38
2022-10-28T17:21:26.307Z,98906.84
2022-10-28T17:23:31.443Z,98904.44
2022-10-28T17:25:35.963Z,98899.75
2022-10-28T17:27:40.825Z,98906.09
2022-10-28T17:29:45.581Z,98895.63
2022-10-28T17:31:52.929Z,98900.19
2022-10-28T17:33:57.978Z,98896.78
2022-10-28T17:36:03.477Z,98900.06
2022-10-28T17:38:08.175Z,98898.28
2022-10-28T17:40:13.603Z,98897.63
2022-10-28T17:42:18.351Z,98904.94
2022-10-28T17:44:23.189Z,98904.25
2022-10-28T17:46:27.919Z,98904.25
2022-10-28T17:48:35.908Z,98908.72
2022-10-28T17:50:40.656Z,98913.16
2022-10-28T17:52:45.495Z,98907.88
2022-10-28T17:54:50.323Z,98913.25
2022-10-28T17:56:55.058Z,98918.94
2022-10-28T17:58:59.959Z,98912.19
2022-10-28T18:01:06.794Z,98917.75
2022-10-28T18:03:12.882Z,98903.63
2022-10-28T18:05:20.236Z,98913.97
2022-10-28T18:07:26.743Z,98911.13
2022-10-28T18:09:32.082Z,98919.47
2022-10-28T18:11:37.719Z,98928.16
2022-10-28T18:13:45.083Z,98921.81
2022-10-28T18:15:49.908Z,98925.31
2022-10-28T18:17:54.635Z,98922.03
2022-10-28T18:20:01.960Z,98925.59
2022-10-28T18:22:09.412Z,98925.50
2022-10-28T18:24:14.229Z,98923.59
2022-10-28T18:26:19.200Z,98930.59
2022-10-28T18:28:23.954Z,98928.69
2022-10-28T18:30:28.788Z,98928.56
2022-10-28T18:32:33.561Z,98921.50
2022-10-28T18:34:38.431Z,98929.53
2022-10-28T18:36:43.331Z,98934.91
2022-10-28T18:38:51.650Z,98929.63
2022-10-28T18:40:56.884Z,98928.88
2022-10-28T18:43:01.636Z,98928.03
2022-10-28T18:45:06.966Z,98929.06
2022-10-28T18:47:11.797Z,98923.91
2022-10-28T18:49:16.552Z,98923.28
2022-10-28T18:51:21.510Z,98923.38
2022-10-28T18:53:26.315Z,98935.81
2022-10-28T18:55:33.695Z,98931.63
2022-10-28T18:57:38.754Z,98926.44
2022-10-28T19:00:12.453Z,98929.06
2022-10-28T19:02:08.448Z,98925.66
2022-10-28T19:04:13.289Z,98920.41
2022-10-28T19:06:19.268Z,98924.84
2022-10-28T19:08:24.034Z,98919.56
2022-10-28T19:10:28.831Z,98922.53
2022-10-28T19:12:40.866Z,98920.81
2022-10-28T19:14:49.029Z,98930.63
2022-10-28T19:16:53.770Z,98929.69
2022-10-28T19:18:59.079Z,98935.78
2022-10-28T19:21:04.378Z,98924.59
2022-10-28T19:23:09.291Z,98933.44
2022-10-28T19:25:14.147Z,98935.16
2022-10-28T19:27:18.885Z,98930.81
2022-10-28T19:29:26.274Z,98937.81
2022-10-28T19:31:31.226Z,98934.41
2022-10-28T19:33:38.315Z,98937.25
2022-10-28T19:35:43.121Z,98935.56
2022-10-28T19:37:47.916Z,98935.78
2022-10-28T19:39:56.437Z,98931.53
2022-10-28T19:42:01.620Z,98931.63
2022-10-28T19:44:07.335Z,98935.22
2022-10-28T19:46:16.987Z,98934.38
2022-10-28T19:48:21.698Z,98931.06
2022-10-28T19:50:26.553Z,98929.31
2022-10-28T19:52:31.279Z,98921.59
2022-10-28T19:54:36.158Z,98929.78
2022-10-28T19:56:42.786Z,98929.78
2022-10-28T19:58:49.629Z,98931.47
2022-10-28T20:01:00.010Z,98935.63
2022-10-28T20:03:07.502Z,98936.34
2022-10-28T20:05:12.423Z,98938.06
2022-10-28T20:07:17.377Z,98941.44
2022-10-28T20:09:26.364Z,98939.31
2022-10-28T20:11:37.759Z,98941.38
2022-10-28T20:13:43.266Z,98946.66
2022-10-28T20:15:48.127Z,98944.88
2022-10-28T20:17:52.887Z,98949.09
2022-10-28T20:20:00.246Z,98952.56
2022-10-28T20:22:04.968Z,98956.94
2022-10-28T20:24:10.776Z,98961.25
2022-10-28T20:26:16.430Z,98956.81
2022-10-28T20:28:21.645Z,98960.41
2022-10-28T20:30:26.565Z,98958.91
2022-10-28T20:32:31.400Z,98962.59
2022-10-28T20:34:36.274Z,98959.25
2022-10-28T20:36:46.716Z,98967.28
2022-10-28T20:38:57.941Z,98960.50
2022-10-28T20:41:03.712Z,98966.72
2022-10-28T20:43:08.570Z,98964.41
2022-10-28T20:45:13.794Z,98966.56
2022-10-28T20:47:18.468Z,98966.31
2022-10-28T20:49:23.275Z,98966.59
2022-10-28T20:51:29.194Z,98968.56
2022-10-28T20:53:38.980Z,98971.41
2022-10-28T20:55:47.781Z,98974.44
2022-10-28T20:57:52.588Z,98970.38
2022-10-28T20:59:57.779Z,98968.88
2022-10-28T21:02:02.717Z,98973.47
2022-10-28T21:04:08.698Z,98975.75
2022-10-28T21:06:15.384Z,98974.34
2022-10-28T21:08:20.455Z,98978.09
2022-10-28T21:10:27.873Z,98983.66
2022-10-28T21:12:32.584Z,98981.47
2022-10-28T21:14:37.366Z,98987.69
2022-10-28T21:16:42.057Z,98992.19
2022-10-28T21:18:46.868Z,98979.25
2022-10-28T21:20:51.628Z,98977.66
2022-10-28T21:22:56.744Z,98981.41
2022-10-28T21:25:02.201Z,98982.44
2022-10-28T21:27:09.533Z,98982.56
2022-10-28T21:29:14.258Z,98978.31
2022-10-28T21:31:19.925Z,98984.59
2022-10-28T21:33:24.694Z,98979.53
2022-10-28T21:35:29.487Z,98986.47
2022-10-28T21:37:34.644Z,98983.06
2022-10-28T21:39:39.883Z,98986.66
2022-10-28T21:41:44.361Z,98984.56
2022-10-28T21:43:53.618Z,98998.56
2022-10-28T21:45:58.776Z,98994.16
2022-10-28T21:48:03.287Z,98993.59
2022-10-28T21:50:08.549Z,99005.13
2022-10-28T21:52:13.179Z,99002.94
2022-10-28T21:54:18.817Z,99005.75
2022-10-28T21:56:23.808Z,99019.84
2022-10-28T21:58:28.542Z,99021.63
2022-10-28T22:00:35.864Z,99018.25
2022-10-28T22:02:40.877Z,99024.59
2022-10-28T22:04:45.499Z,99021.47
2022-10-28T22:06:50.251Z,99027.75
2022-10-28T22:08:55.437Z,99021.72
2022-10-28T22:11:03.975Z,99022.19
2022-10-28T22:13:08.735Z,99027.63
2022-10-28T22:15:13.712Z,99024.97
2022-10-28T22:17:21.051Z,99027.63
2022-10-28T22:19:26.025Z,99038.03
2022-10-28T22:21:31.776Z,99043.56
2022-10-28T22:23:36.857Z,99041.84
2022-10-28T22:25:41.616Z,99047.09
2022-10-28T22:27:46.802Z,99044.59
2022-10-28T22:29:51.325Z,99043.03
2022-10-28T22:31:56.076Z,99036.94
2022-10-28T22:34:05.478Z,99037.72
2022-10-28T22:36:12.320Z,99042.13
2022-10-28T22:38:17.129Z,99040.41
2022-10-28T22:40:21.903Z,99036.75
2022-10-28T22:42:26.839Z,99036.59
2022-10-28T22:44:31.569Z,99038.31
2022-10-28T22:46:37.085Z,99035.69
2022-10-28T22:48:41.897Z,99047.09
2022-10-28T22:50:49.282Z,99045.09
2022-10-28T22:52:54.642Z,99031.75
2022-10-28T22:54:59.437Z,99036.00
2022-10-28T22:57:04.159Z,99029.06
2022-10-28T22:59:09.323Z,99039.41
2022-10-28T23:01:16.905Z,99041.09
2022-10-28T23:03:21.974Z,99040.41
2022-10-28T23:05:26.950Z,99047.38
2022-10-28T23:07:34.285Z,99047.38
2022-10-28T23:09:39.028Z,99051.88
2022-10-28T23:11:43.859Z,99050.16
2022-10-28T23:13:48.988Z,99050.50
2022-10-28T23:15:53.695Z,99052.72
2022-10-28T23:17:58.931Z,99057.22
2022-10-28T23:20:03.780Z,99059.94
2022-10-28T23:22:08.490Z,99055.69
2022-10-28T23:24:15.932Z,99058.41
2022-10-28T23:26:20.671Z,99053.22
2022-10-28T23:28:25.436Z,99061.94
2022-10-28T23:30:30.160Z,99055.97
2022-10-28T23:32:34.948Z,99057.84
2022-10-28T23:34:39.693Z,99060.75
2022-10-28T23:36:44.511Z,99062.75
2022-10-28T23:38:49.190Z,99060.31
2022-10-28T23:41:01.108Z,99062.25
2022-10-28T23:43:05.859Z,99053.59
2022-10-28T23:45:12.280Z,99053.75
2022-10-28T23:47:17.198Z,99050.47
2022-10-28T23:49:21.854Z,99065.00
2022-10-28T23:51:26.567Z,99058.13
2022-10-28T23:53:31.551Z,99062.69
2022-10-28T23:55:36.250Z,99069.91
2022-10-28T23:57:43.626Z,99071.69
2022-10-28T23:59:48.358Z,99072.38
